Time;durP1;ratioP1;P1;durP2;ratioP2;P2;SDS_P1;SDS_P2;PMS_P1;PMS_P2;Temp;Humidity;BMP_temperature;BMP_pressure;BME280_temperature;BME280_humidity;BME280_pressure;Samples;Min_cycle;Max_cycle;Signal;HPM_P1;HPM_P2
2023/04/07 00:00:03;;;;;;;7.37;2.50;;;;;;;9.10;35.64;100121.78;4903743;29;20055;-71
2023/04/07 00:02:37;;;;;;;9.80;2.50;;;;;;;8.83;35.24;100124.22;4935790;29;20046;-71
2023/04/07 00:05:04;;;;;;;8.07;2.53;;;;;;;8.85;35.12;100125.78;4919574;29;20070;-71
2023/04/07 00:07:30;;;;;;;10.07;2.83;;;;;;;8.76;35.67;100131.03;4967085;28;20051;-71
2023/04/07 00:09:56;;;;;;;5.47;2.67;;;;;;;8.73;35.36;100131.31;4932195;29;20565;-71
2023/04/07 00:12:26;;;;;;;7.30;2.57;;;;;;;8.71;35.47;100128.78;4916718;29;20612;-71
2023/04/07 00:14:52;;;;;;;10.03;2.90;;;;;;;8.66;35.65;100133.66;4931569;29;20047;-71
2023/04/07 00:17:19;;;;;;;4.40;2.30;;;;;;;8.67;35.50;100129.19;4915930;29;20040;-70
2023/04/07 00:19:47;;;;;;;4.33;2.60;;;;;;;8.64;35.79;100135.63;4915747;29;20055;-71
2023/04/07 00:22:13;;;;;;;8.27;3.03;;;;;;;8.54;35.80;100129.41;4915931;29;20134;-71
2023/04/07 00:24:39;;;;;;;3.83;2.40;;;;;;;8.53;35.94;100130.41;4919135;29;20158;-70
2023/04/07 00:27:05;;;;;;;9.60;2.80;;;;;;;8.47;36.03;100137.06;4973190;28;20077;-71
2023/04/07 00:29:32;;;;;;;7.43;2.93;;;;;;;8.50;36.06;100128.84;4957154;28;20046;-70
2023/04/07 00:31:58;;;;;;;6.33;2.50;;;;;;;8.45;36.09;100125.78;4957409;28;20054;-72
2023/04/07 00:34:24;;;;;;;4.17;2.17;;;;;;;8.43;36.25;100127.72;4957310;28;20133;-72
2023/04/07 00:36:53;;;;;;;4.50;2.37;;;;;;;8.43;36.15;100130.34;4957303;28;20065;-72
2023/04/07 00:39:20;;;;;;;6.43;2.27;;;;;;;8.51;36.46;100127.03;4918886;29;20113;-72
2023/04/07 00:41:48;;;;;;;6.63;2.70;;;;;;;8.44;36.58;100131.22;4935555;28;20043;-72
2023/04/07 00:44:14;;;;;;;6.23;2.30;;;;;;;8.36;36.48;100120.44;4955558;28;20141;-72
2023/04/07 00:46:40;;;;;;;5.97;2.33;;;;;;;8.45;36.47;100127.56;4941723;28;20086;-73
2023/04/07 00:49:08;;;;;;;2.87;2.07;;;;;;;8.45;36.43;100127.56;4925584;28;20055;-72
2023/04/07 00:51:36;;;;;;;7.43;2.33;;;;;;;8.34;36.37;100123.22;4910965;28;20149;-71
2023/04/07 00:54:02;;;;;;;7.93;2.50;;;;;;;8.33;36.28;100126.81;4973639;28;20165;-70
2023/04/07 00:56:28;;;;;;;3.23;2.17;;;;;;;8.28;36.45;100120.25;4973660;28;20077;-71
2023/04/07 00:58:55;;;;;;;5.73;2.03;;;;;;;8.25;36.59;100120.50;4939114;28;20157;-71
2023/04/07 01:01:24;;;;;;;4.70;2.37;;;;;;;8.54;36.72;100117.03;4941563;28;20141;-71
2023/04/07 01:04:31;;;;;;;5.53;2.03;;;;;;;8.73;36.99;100124.22;4937942;29;20063;-72
2023/04/07 01:07:06;;;;;;;8.60;2.17;;;;;;;8.63;36.78;100123.31;4906635;29;20159;-72
2023/04/07 01:09:46;;;;;;;3.70;2.17;;;;;;;8.56;36.95;100122.19;4931107;28;20471;-73
2023/04/07 01:12:29;;;;;;;3.53;2.20;;;;;;;8.56;36.88;100125.66;4929013;28;20046;-72
2023/04/07 01:14:59;;;;;;;9.53;1.93;;;;;;;8.49;36.95;100126.31;4944717;28;20516;-73
2023/04/07 01:17:45;;;;;;;5.33;2.30;;;;;;;8.52;36.98;100126.06;4932219;28;20042;-70
2023/04/07 01:20:16;;;;;;;3.10;2.00;;;;;;;8.45;37.13;100119.63;4960227;28;20058;-71
2023/04/07 01:22:46;;;;;;;2.27;1.90;;;;;;;8.39;37.16;100125.47;4944637;28;20042;-72
2023/04/07 01:25:33;;;;;;;6.80;2.10;;;;;;;8.46;37.24;100119.50;4944486;28;20208;-73
2023/04/07 01:28:00;;;;;;;3.63;2.00;;;;;;;8.02;37.21;100126.91;4944933;28;20105;-72
2023/04/07 01:30:28;;;;;;;10.10;2.47;;;;;;;8.08;37.51;100129.88;4944462;28;20057;-73
2023/04/07 01:32:57;;;;;;;7.63;2.57;;;;;;;8.12;37.40;100118.03;4976644;28;20412;-72
2023/04/07 01:35:24;;;;;;;9.93;2.27;;;;;;;7.92;37.85;100120.69;4944361;28;20050;-72
2023/04/07 01:37:50;;;;;;;6.30;2.40;;;;;;;7.89;37.68;100119.16;4959837;28;20861;-72
2023/04/07 01:40:16;;;;;;;9.33;2.30;;;;;;;7.84;37.86;100123.16;4959959;28;20057;-71
2023/04/07 01:42:42;;;;;;;15.47;2.63;;;;;;;7.75;38.16;100123.94;4975997;28;20182;-71
2023/04/07 01:45:10;;;;;;;9.43;2.23;;;;;;;7.96;37.93;100125.63;4992517;28;20046;-72
2023/04/07 01:47:36;;;;;;;11.83;2.40;;;;;;;7.84;38.26;100125.81;4928154;28;20058;-71
2023/04/07 01:50:08;;;;;;;10.47;2.70;;;;;;;8.05;37.71;100122.19;4960012;28;20504;-71
2023/04/07 01:52:35;;;;;;;3.83;2.17;;;;;;;7.98;37.82;100130.78;4943900;28;20149;-71
2023/04/07 01:55:02;;;;;;;5.97;2.47;;;;;;;7.95;38.23;100118.63;4943482;28;20054;-71
2023/04/07 01:57:29;;;;;;;12.67;2.87;;;;;;;7.73;38.16;100120.56;4959864;28;20050;-72
2023/04/07 02:00:00;;;;;;;3.93;2.00;;;;;;;7.78;37.95;100123.69;4975926;28;20057;-71
2023/04/07 02:02:30;;;;;;;3.63;1.93;;;;;;;7.77;38.15;100127.28;4959952;28;20633;-72
2023/04/07 02:05:02;;;;;;;4.43;2.00;;;;;;;7.99;38.31;100140.38;4982279;28;20045;-73
2023/04/07 02:07:51;;;;;;;8.23;2.43;;;;;;;8.03;38.41;100137.34;4983836;28;20195;-72
2023/04/07 02:10:20;;;;;;;5.30;2.00;;;;;;;7.82;38.41;100127.72;4983622;28;20033;-72
2023/04/07 02:12:47;;;;;;;7.40;2.00;;;;;;;7.74;38.50;100127.53;4999708;28;20068;-72
2023/04/07 02:15:17;;;;;;;8.37;2.30;;;;;;;7.80;38.26;100122.56;4983973;28;20161;-72
2023/04/07 02:17:47;;;;;;;5.70;1.93;;;;;;;7.84;38.54;100131.09;4983088;28;20041;-72
2023/04/07 02:20:14;;;;;;;4.88;1.92;;;;;;;7.58;38.36;100127.16;4983317;28;20515;-72
2023/04/07 02:22:41;;;;;;;4.33;2.10;;;;;;;7.52;38.30;100138.22;4983076;28;20077;-72
2023/04/07 02:25:29;;;;;;;15.10;2.57;;;;;;;7.83;38.67;100122.31;4999117;28;20053;-73
2023/04/07 02:27:56;;;;;;;19.83;2.93;;;;;;;7.56;38.70;100129.06;5015944;28;20053;-73
2023/04/07 02:30:23;;;;;;;8.03;2.10;;;;;;;7.40;38.53;100134.78;4999398;28;20043;-73
2023/04/07 02:32:50;;;;;;;11.80;2.10;;;;;;;7.35;38.86;100131.66;4983042;28;20483;-71
2023/04/07 02:35:17;;;;;;;6.83;2.10;;;;;;;7.26;39.04;100128.97;4999126;28;20052;-71
2023/04/07 02:37:46;;;;;;;12.87;2.13;;;;;;;7.57;39.53;100139.50;4982334;28;20037;-73
2023/04/07 02:40:14;;;;;;;4.80;1.80;;;;;;;7.55;39.17;100141.44;5013786;28;20053;-72
2023/04/07 02:42:40;;;;;;;9.97;2.50;;;;;;;7.20;38.88;100143.50;4981459;28;20088;-72
2023/04/07 02:45:07;;;;;;;12.47;2.50;;;;;;;7.34;39.10;100134.44;5013535;28;20085;-73
2023/04/07 02:47:33;;;;;;;5.73;2.20;;;;;;;7.21;38.93;100147.78;4947158;28;20137;-73
2023/04/07 02:49:59;;;;;;;6.63;2.47;;;;;;;7.15;39.13;100139.56;4947397;28;20047;-73
2023/04/07 02:52:25;;;;;;;9.67;2.30;;;;;;;7.12;39.40;100145.09;4936501;29;20078;-72
2023/04/07 02:54:54;;;;;;;4.77;2.33;;;;;;;7.14;39.43;100149.28;4921215;29;20066;-72
2023/04/07 02:57:26;;;;;;;5.80;2.30;;;;;;;7.08;39.52;100154.19;4922374;29;20055;-72
2023/04/07 02:59:56;;;;;;;6.50;2.08;;;;;;;7.09;39.66;100161.19;4934320;28;20046;-71
2023/04/07 03:02:26;;;;;;;10.88;2.50;;;;;;;7.10;39.55;100157.56;4930982;28;20070;-72
2023/04/07 03:04:52;;;;;;;10.77;2.37;;;;;;;7.17;39.57;100153.44;4939137;28;20070;-70
2023/04/07 03:07:20;;;;;;;6.53;2.27;;;;;;;7.04;39.42;100147.50;4912213;28;20059;-70
2023/04/07 03:09:49;;;;;;;6.63;2.00;;;;;;;7.08;39.55;100151.56;4940352;28;20105;-71
2023/04/07 03:12:17;;;;;;;10.97;2.30;;;;;;;7.07;39.79;100155.19;4958520;28;20109;-72
2023/04/07 03:14:43;;;;;;;3.80;2.30;;;;;;;7.04;39.74;100156.28;4975385;28;20042;-72
2023/04/07 03:17:11;;;;;;;5.17;2.27;;;;;;;7.20;39.78;100150.56;4959335;28;20042;-69
2023/04/07 03:19:38;;;;;;;9.03;2.60;;;;;;;7.11;39.54;100156.59;4998685;28;20060;-70
2023/04/07 03:22:04;;;;;;;7.20;2.67;;;;;;;7.12;39.77;100159.09;4942985;28;20050;-69
2023/04/07 03:24:35;;;;;;;;;;;;;;;7.71;39.30;100155.06;4960165;28;20083;-70
2023/04/07 03:27:02;;;;;;;4.03;2.10;;;;;;;7.20;39.43;100161.97;4975070;28;20419;-71
2023/04/07 03:29:40;;;;;;;5.40;2.27;;;;;;;7.16;39.39;100159.72;4970995;28;20041;-71
2023/04/07 03:32:09;;;;;;;6.37;2.33;;;;;;;7.17;39.54;100164.03;4974936;28;20140;-74
2023/04/07 03:34:37;;;;;;;7.40;2.20;;;;;;;7.21;39.58;100163.66;4997296;28;20054;-71
2023/04/07 03:37:03;;;;;;;7.10;2.10;;;;;;;7.23;39.51;100174.94;4986178;28;20056;-71
2023/04/07 03:39:36;;;;;;;9.77;2.43;;;;;;;7.24;39.36;100165.22;4971195;28;20082;-71
2023/04/07 03:42:04;;;;;;;5.93;2.60;;;;;;;7.27;39.35;100186.09;4965017;28;20070;-70
2023/04/07 03:44:32;;;;;;;8.87;2.80;;;;;;;7.37;39.47;100185.22;4925498;28;20120;-69
2023/04/07 03:46:59;;;;;;;9.00;2.60;;;;;;;7.34;39.52;100179.34;4946457;28;20053;-70
2023/04/07 03:49:27;;;;;;;13.23;2.60;;;;;;;7.38;39.37;100186.09;4952787;28;20073;-69
2023/04/07 03:51:54;;;;;;;6.20;2.77;;;;;;;7.42;39.14;100185.72;4939388;28;20117;-69
2023/04/07 03:54:20;;;;;;;12.13;2.63;;;;;;;7.45;39.24;100189.91;4964720;28;20149;-68
2023/04/07 03:56:46;;;;;;;7.50;2.40;;;;;;;7.50;39.10;100185.09;4948810;28;20585;-68
2023/04/07 03:59:18;;;;;;;8.83;2.63;;;;;;;7.52;39.01;100189.25;4958374;28;20136;-68
2023/04/07 04:01:52;;;;;;;6.80;2.50;;;;;;;7.58;38.99;100187.94;4971860;28;20057;-69
2023/04/07 04:04:18;;;;;;;12.37;2.90;;;;;;;7.59;38.78;100195.75;4929658;28;20046;-68
2023/04/07 04:06:44;;;;;;;5.90;2.53;;;;;;;7.64;38.95;100192.72;4954973;28;20489;-67
2023/04/07 04:09:30;;;;;;;8.07;2.47;;;;;;;7.69;38.59;100195.81;4939638;28;20058;-70
2023/04/07 04:11:58;;;;;;;12.70;3.03;;;;;;;7.68;38.61;100191.50;4936467;28;20583;-70
2023/04/07 04:14:25;;;;;;;8.67;3.40;;;;;;;7.74;38.93;100201.56;4935987;28;20061;-69
2023/04/07 04:16:55;;;;;;;;;;;;;;;8.41;38.21;100200.28;4938449;28;20327;-69
2023/04/07 04:19:32;;;;;;;7.80;2.83;;;;;;;7.89;38.29;100200.28;4937690;28;19961;-70
2023/04/07 04:22:06;;;;;;;8.47;2.93;;;;;;;7.87;38.37;100196.94;4938149;28;20054;-70
2023/04/07 04:24:36;;;;;;;9.23;3.22;;;;;;;7.93;38.27;100201.72;4946080;28;20364;-68
2023/04/07 04:27:03;;;;;;;13.80;3.03;;;;;;;7.97;38.23;100205.78;4987957;28;20147;-70
2023/04/07 04:29:30;;;;;;;8.90;3.63;;;;;;;8.03;38.29;100199.97;4995831;28;20115;-67
2023/04/07 04:31:59;;;;;;;6.90;2.77;;;;;;;8.13;38.06;100206.19;4995752;28;20078;-68
2023/04/07 04:34:26;;;;;;;8.43;2.80;;;;;;;8.14;37.88;100205.22;4996269;28;20407;-69
2023/04/07 04:36:54;;;;;;;10.83;2.47;;;;;;;8.20;37.95;100215.28;5012649;28;20049;-69
2023/04/07 04:39:20;;;;;;;8.37;3.17;;;;;;;8.26;37.70;100209.50;4979756;28;20083;-71
2023/04/07 04:41:46;;;;;;;4.93;2.93;;;;;;;8.22;37.83;100208.06;4979661;28;20056;-71
2023/04/07 04:44:12;;;;;;;11.17;3.13;;;;;;;8.42;37.33;100220.47;4996034;28;20472;-71
2023/04/07 04:46:41;;;;;;;10.60;3.10;;;;;;;8.57;37.27;100213.88;4996376;28;20053;-71
2023/04/07 04:49:15;;;;;;;9.33;2.70;;;;;;;8.81;37.36;100213.59;4995605;28;20160;-71
2023/04/07 04:52:08;;;;;;;10.70;3.03;;;;;;;9.20;36.81;100218.88;4965202;28;20068;-71
2023/04/07 04:54:40;;;;;;;4.20;2.70;;;;;;;8.73;36.92;100224.00;4995645;28;20458;-71
2023/04/07 04:57:08;;;;;;;6.13;2.60;;;;;;;9.09;36.73;100223.44;4995738;28;20582;-72
2023/04/07 04:59:36;;;;;;;9.77;2.73;;;;;;;8.84;36.58;100229.22;4976175;28;20046;-72
2023/04/07 05:02:07;;;;;;;8.17;2.40;;;;;;;9.23;36.60;100218.59;4960221;28;20438;-72
2023/04/07 05:04:40;;;;;;;13.50;3.23;;;;;;;9.28;36.30;100231.44;5008998;28;20145;-73
2023/04/07 05:07:28;;;;;;;5.22;2.72;;;;;;;9.17;36.17;100229.75;4966244;28;20045;-73
2023/04/07 05:09:55;;;;;;;13.77;3.17;;;;;;;9.17;35.81;100231.56;4976882;28;20390;-73
2023/04/07 05:12:46;;;;;;;10.83;3.53;;;;;;;9.73;35.79;100235.31;4975551;28;20403;-75
2023/04/07 05:15:14;;;;;;;14.65;3.28;;;;;;;9.27;35.67;100243.84;4992375;28;20050;-73
2023/04/07 05:17:49;;;;;;;8.10;2.77;;;;;;;9.39;35.68;100239.31;4988737;28;20515;-76
2023/04/07 05:20:18;;;;;;;10.03;2.30;;;;;;;9.39;35.48;100239.31;4972674;28;20394;-72
2023/04/07 05:22:44;;;;;;;5.13;2.50;;;;;;;9.43;35.40;100240.69;4989117;28;20497;-75
2023/04/07 05:25:13;;;;;;;11.43;2.90;;;;;;;9.47;35.07;100242.13;4972673;28;20145;-73
2023/04/07 05:27:42;;;;;;;10.80;2.83;;;;;;;9.47;35.35;100242.94;4973055;28;20141;-73
2023/04/07 05:30:13;;;;;;;7.93;2.53;;;;;;;9.64;35.19;100252.06;4973252;28;20145;-74
2023/04/07 05:32:39;;;;;;;12.43;2.63;;;;;;;9.66;35.08;100250.09;4976442;28;20497;-73
2023/04/07 05:35:14;;;;;;;9.67;2.80;;;;;;;9.76;34.92;100243.00;4991240;28;20481;-72
2023/04/07 05:37:47;;;;;;;9.18;2.83;;;;;;;9.86;34.69;100251.78;4976226;28;20113;-74
2023/04/07 05:40:14;;;;;;;6.65;3.05;;;;;;;9.92;34.60;100252.09;4960134;28;20058;-71
2023/04/07 05:42:40;;;;;;;9.48;3.30;;;;;;;10.15;34.46;100253.50;4960246;28;20046;-71
2023/04/07 05:45:08;;;;;;;19.33;4.22;;;;;;;10.32;34.30;100253.78;4961546;28;20618;-71
2023/04/07 05:47:39;;;;;;;;;;;;;;;10.84;33.97;100266.56;4964941;28;20048;-70
2023/04/07 05:50:06;;;;;;;8.48;3.60;;;;;;;10.36;34.18;100265.78;4999093;28;19971;-74
2023/04/07 05:52:35;;;;;;;11.50;3.83;;;;;;;10.39;33.87;100257.53;4980149;28;20400;-70
2023/04/07 05:55:12;;;;;;;13.45;3.78;;;;;;;10.52;33.71;100252.78;4937622;28;20213;-71
2023/04/07 05:57:39;;;;;;;14.90;3.42;;;;;;;10.69;33.55;100270.63;4937291;29;20145;-70
2023/04/07 06:00:08;;;;;;;14.00;3.25;;;;;;;11.03;33.18;100259.34;4899628;29;20381;-75
2023/04/07 06:02:40;;;;;;;9.00;2.55;;;;;;;10.95;33.03;100266.34;4899570;29;20056;-73
2023/04/07 06:05:12;;;;;;;6.70;2.78;;;;;;;10.92;32.87;100266.63;4861374;29;20068;-71
2023/04/07 06:07:41;;;;;;;7.95;3.00;;;;;;;11.09;32.84;100268.53;4846756;29;20211;-73
2023/04/07 06:10:08;;;;;;;8.98;2.67;;;;;;;11.41;32.62;100275.13;4846753;29;20061;-72
2023/04/07 06:12:34;;;;;;;16.08;2.95;;;;;;;11.32;32.61;100272.50;4830486;29;20049;-72
2023/04/07 06:15:00;;;;;;;8.75;2.17;;;;;;;11.41;32.21;100280.44;4831407;29;20172;-71
2023/04/07 06:17:26;;;;;;;8.43;2.38;;;;;;;11.56;31.95;100278.13;4831604;29;20049;-73
2023/04/07 06:19:53;;;;;;;10.13;2.90;;;;;;;11.62;32.07;100270.41;4858500;29;20095;-71
2023/04/07 06:22:19;;;;;;;9.70;2.75;;;;;;;11.79;31.56;100271.44;4821443;29;20084;-71
2023/04/07 06:24:44;;;;;;;9.05;2.28;;;;;;;11.94;31.35;100277.91;4887317;29;20550;-70
2023/04/07 06:27:10;;;;;;;5.40;2.60;;;;;;;12.06;31.13;100279.34;4930335;29;20469;-71
2023/04/07 06:29:36;;;;;;;9.23;2.47;;;;;;;12.16;30.92;100276.63;4921648;28;20137;-70
2023/04/07 06:32:05;;;;;;;8.48;2.95;;;;;;;12.41;30.74;100276.66;4980211;28;20050;-70
2023/04/07 06:34:32;;;;;;;10.48;2.63;;;;;;;12.49;30.50;100274.06;4966750;28;20058;-72
2023/04/07 06:36:59;;;;;;;10.60;2.83;;;;;;;12.68;30.29;100281.91;4960837;28;20133;-70
2023/04/07 06:39:29;;;;;;;7.95;2.83;;;;;;;12.96;30.19;100270.06;4932734;28;20133;-71
2023/04/07 06:41:56;;;;;;;10.87;3.10;;;;;;;12.82;29.84;100273.31;4959251;28;20474;-71
2023/04/07 06:44:21;;;;;;;8.55;2.35;;;;;;;12.97;29.51;100281.56;4964272;28;20326;-71
2023/04/07 06:46:52;;;;;;;9.57;2.38;;;;;;;13.17;29.11;100285.72;4991517;28;20936;-71
2023/04/07 06:49:18;;;;;;;16.43;2.87;;;;;;;13.42;28.89;100274.19;4996872;28;20033;-70
2023/04/07 06:51:44;;;;;;;8.13;2.30;;;;;;;13.45;28.65;100280.00;4981874;28;20063;-71
2023/04/07 06:54:14;;;;;;;12.18;2.53;;;;;;;13.64;28.42;100286.09;4964171;28;20037;-70
2023/04/07 06:56:41;;;;;;;7.93;2.20;;;;;;;13.94;28.44;100288.19;4964372;28;20143;-71
2023/04/07 06:59:06;;;;;;;12.82;2.47;;;;;;;14.03;28.01;100285.38;4984619;28;20045;-71
2023/04/07 07:01:33;;;;;;;9.88;2.53;;;;;;;14.24;27.85;100288.44;4981489;28;20048;-69
2023/04/07 07:04:00;;;;;;;7.70;2.25;;;;;;;14.36;27.67;100286.28;4965154;28;20045;-70
2023/04/07 07:06:26;;;;;;;9.52;2.60;;;;;;;14.62;27.25;100282.41;4981654;28;20131;-71
2023/04/07 07:08:52;;;;;;;14.43;2.40;;;;;;;14.78;26.81;100286.91;4996155;28;20053;-73
2023/04/07 07:11:18;;;;;;;8.15;2.10;;;;;;;14.81;26.18;100275.88;4998168;28;20052;-73
2023/04/07 07:13:44;;;;;;;9.70;2.60;;;;;;;15.01;26.24;100293.22;4981270;28;20045;-74
2023/04/07 07:16:11;;;;;;;8.18;2.05;;;;;;;15.18;25.96;100286.84;4982309;28;20388;-69
2023/04/07 07:18:37;;;;;;;10.90;1.98;;;;;;;15.31;25.66;100292.50;5014657;28;20442;-69
2023/04/07 07:21:04;;;;;;;4.85;2.28;;;;;;;15.68;25.86;100295.41;4997878;28;20049;-72
2023/04/07 07:23:30;;;;;;;9.50;1.77;;;;;;;15.83;25.44;100287.44;4981751;28;20248;-69
2023/04/07 07:25:56;;;;;;;22.33;6.03;;;;;;;16.14;24.90;100283.75;4961409;28;20046;-70
2023/04/07 07:28:25;;;;;;;22.50;2.67;;;;;;;16.51;24.41;100289.16;4961593;28;20480;-70
2023/04/07 07:30:53;;;;;;;11.38;4.05;;;;;;;16.74;23.98;100284.59;4959778;28;20045;-70
2023/04/07 07:33:21;;;;;;;6.28;2.25;;;;;;;17.09;23.48;100291.16;4942920;28;20141;-70
2023/04/07 07:35:47;;;;;;;8.65;1.77;;;;;;;18.31;22.37;100284.03;4959077;28;20115;-70
2023/04/07 07:38:13;;;;;;;13.77;2.00;;;;;;;20.84;20.00;100296.34;4959710;28;20570;-71
2023/04/07 07:40:39;;;;;;;8.35;2.15;;;;;;;24.05;16.98;100294.94;4961264;28;20065;-71
2023/04/07 07:43:05;;;;;;;10.27;1.95;;;;;;;27.50;14.16;100289.84;4961546;28;20045;-71
2023/04/07 07:45:31;;;;;;;9.10;2.40;;;;;;;29.90;12.30;100287.69;4961179;28;20141;-70
2023/04/07 07:47:57;;;;;;;11.55;2.30;;;;;;;31.59;10.65;100290.03;4976461;28;20103;-71
2023/04/07 07:50:23;;;;;;;15.93;2.35;;;;;;;33.61;9.34;100286.41;4977380;28;20137;-72
2023/04/07 07:52:48;;;;;;;14.75;2.22;;;;;;;34.71;8.52;100286.84;4993280;28;20504;-71
2023/04/07 07:55:14;;;;;;;8.52;1.90;;;;;;;35.88;7.49;100287.22;4944913;28;20475;-71
2023/04/07 07:57:40;;;;;;;17.48;1.85;;;;;;;36.83;7.14;100287.00;5010415;28;20670;-71
2023/04/07 08:00:06;;;;;;;7.47;1.90;;;;;;;37.94;6.21;100290.34;4981326;28;20139;-71
2023/04/07 08:02:39;;;;;;;8.13;1.80;;;;;;;38.86;5.69;100279.66;4999240;28;20049;-71
2023/04/07 08:05:05;;;;;;;20.33;2.38;;;;;;;38.90;5.41;100269.53;4997531;28;20096;-72
2023/04/07 08:07:31;;;;;;;14.20;1.98;;;;;;;39.12;5.58;100274.88;4981470;28;20103;-72
2023/04/07 08:09:57;;;;;;;4.47;1.40;;;;;;;39.31;5.27;100268.94;4998300;28;20080;-71
2023/04/07 08:12:23;;;;;;;10.48;1.65;;;;;;;38.15;5.99;100258.91;4996797;28;20486;-71
2023/04/07 08:14:49;;;;;;;6.95;1.50;;;;;;;38.58;5.50;100259.75;4981332;28;20107;-72
2023/04/07 08:17:16;;;;;;;11.82;1.40;;;;;;;39.74;4.86;100267.63;4981334;28;20041;-71
2023/04/07 08:19:42;;;;;;;13.52;1.92;;;;;;;40.32;4.81;100264.00;4997254;28;20045;-71
2023/04/07 08:22:07;;;;;;;12.02;1.77;;;;;;;41.04;4.30;100267.09;4981119;28;20052;-72
2023/04/07 08:24:33;;;;;;;3.72;1.50;;;;;;;41.58;3.91;100249.09;4981444;28;20111;-71
2023/04/07 08:27:00;;;;;;;10.23;1.50;;;;;;;41.59;4.00;100255.50;4981173;28;20041;-71
2023/04/07 08:29:28;;;;;;;6.80;2.00;;;;;;;41.83;3.86;100258.28;4981894;28;20033;-72
2023/04/07 08:31:54;;;;;;;7.55;2.03;;;;;;;42.19;3.77;100252.66;4981360;28;20042;-72
2023/04/07 08:34:20;;;;;;;8.02;1.95;;;;;;;42.52;3.55;100249.69;4981141;28;20802;-71
2023/04/07 08:36:46;;;;;;;4.38;1.80;;;;;;;42.88;3.40;100246.72;4981351;28;20329;-72
2023/04/07 08:39:11;;;;;;;9.18;1.70;;;;;;;43.21;3.21;100244.47;4997330;28;20107;-71
2023/04/07 08:41:40;;;;;;;13.85;2.80;;;;;;;44.11;2.75;100241.47;4980972;28;20423;-71
2023/04/07 08:44:06;;;;;;;8.57;1.50;;;;;;;44.12;2.95;100238.31;4980895;28;20053;-71
2023/04/07 08:46:33;;;;;;;8.50;1.63;;;;;;;44.01;2.67;100242.84;4980822;28;20042;-71
2023/04/07 08:48:59;;;;;;;9.50;1.38;;;;;;;44.56;2.50;100248.06;4997268;28;20053;-71
2023/04/07 08:51:30;;;;;;;7.55;1.45;;;;;;;45.02;2.54;100243.41;4981290;28;20041;-71
2023/04/07 08:54:09;;;;;;;7.18;1.40;;;;;;;44.94;2.38;100235.19;4997414;28;20395;-71
2023/04/07 08:56:37;;;;;;;7.37;1.47;;;;;;;44.87;2.55;100240.69;4981127;28;20056;-71
2023/04/07 08:59:05;;;;;;;12.50;1.58;;;;;;;45.03;2.28;100233.00;4997203;28;20283;-71
2023/04/07 09:01:31;;;;;;;8.00;1.42;;;;;;;44.62;2.03;100238.19;4997016;28;20075;-71
2023/04/07 09:03:57;;;;;;;5.85;1.50;;;;;;;44.62;2.04;100235.41;4981178;28;20048;-71
2023/04/07 09:06:24;;;;;;;4.57;0.90;;;;;;;44.16;2.27;100230.81;4984548;28;20072;-71
2023/04/07 09:08:50;;;;;;;9.73;1.30;;;;;;;43.98;2.34;100232.38;5000973;28;20041;-71
2023/04/07 09:11:15;;;;;;;6.10;1.30;;;;;;;44.29;2.29;100221.09;4984294;28;20476;-71
2023/04/07 09:13:41;;;;;;;5.53;1.40;;;;;;;44.44;2.31;100227.81;4983981;28;20041;-72
2023/04/07 09:16:07;;;;;;;6.10;1.58;;;;;;;44.27;2.15;100215.03;4984350;28;20456;-72
2023/04/07 09:18:33;;;;;;;10.43;1.95;;;;;;;44.36;1.98;100228.84;5016858;28;20519;-71
2023/04/07 09:20:59;;;;;;;10.98;1.45;;;;;;;44.28;2.15;100227.88;5017263;28;20041;-71
2023/04/07 09:23:32;;;;;;;5.05;1.42;;;;;;;44.56;1.97;100231.25;5000749;28;20203;-72
2023/04/07 09:26:00;;;;;;;5.90;1.13;;;;;;;43.71;2.38;100219.34;5000531;28;20041;-72
2023/04/07 09:28:47;;;;;;;4.80;1.15;;;;;;;44.32;2.15;100220.34;4984423;28;20045;-71
2023/04/07 09:31:13;;;;;;;5.20;1.63;;;;;;;44.02;2.18;100216.50;5016398;28;20049;-71
2023/04/07 09:33:40;;;;;;;6.90;1.50;;;;;;;43.80;2.38;100219.13;5000198;28;20045;-70
2023/04/07 09:36:06;;;;;;;7.00;1.67;;;;;;;44.03;2.35;100229.31;4984192;28;20534;-71
2023/04/07 09:38:33;;;;;;;11.45;1.58;;;;;;;43.32;2.42;100222.34;4967910;28;20455;-71
2023/04/07 09:41:17;;;;;;;9.77;1.85;;;;;;;39.88;3.50;100217.31;5000474;28;20391;-71
2023/04/07 09:43:44;;;;;;;12.07;1.80;;;;;;;39.96;3.39;100210.91;5000400;28;20049;-72
2023/04/07 09:46:14;;;;;;;8.30;1.60;;;;;;;40.76;3.29;100215.13;4983894;28;20042;-71
2023/04/07 09:48:40;;;;;;;;;;;;;;;42.01;2.77;100214.22;4999463;28;20056;-72
2023/04/07 09:51:08;;;;;;;14.52;1.73;;;;;;;42.57;2.58;100210.28;5016297;28;20023;-72
2023/04/07 09:53:50;;;;;;;5.47;1.40;;;;;;;43.60;2.48;100212.69;4999721;28;20542;-71
2023/04/07 09:56:23;;;;;;;8.27;1.48;;;;;;;44.15;2.21;100215.16;4984189;28;20128;-72
2023/04/07 09:58:52;;;;;;;8.18;1.13;;;;;;;43.64;2.18;100216.34;5000271;28;20487;-72
2023/04/07 10:01:19;;;;;;;13.15;1.50;;;;;;;43.92;1.96;100202.25;4984206;28;20037;-72
2023/04/07 10:03:46;;;;;;;7.15;1.40;;;;;;;43.46;2.42;100222.69;4999970;28;20064;-72
2023/04/07 10:06:12;;;;;;;7.80;1.20;;;;;;;44.06;2.03;100220.16;4983430;28;20045;-72
2023/04/07 10:08:41;;;;;;;16.80;2.38;;;;;;;44.77;1.66;100218.84;4983390;28;20045;-72
2023/04/07 10:11:07;;;;;;;12.38;1.58;;;;;;;44.90;1.70;100220.31;4983233;28;20047;-72
2023/04/07 10:13:35;;;;;;;8.27;1.90;;;;;;;45.15;1.81;100221.59;4982486;28;20491;-72
2023/04/07 10:16:06;;;;;;;8.18;2.70;;;;;;;45.19;1.47;100222.47;4983016;28;20065;-71
2023/04/07 10:18:33;;;;;;;9.77;1.40;;;;;;;44.37;1.94;100216.44;4983510;28;20164;-72
2023/04/07 10:21:02;;;;;;;5.25;1.67;;;;;;;44.38;1.76;100221.69;4983242;28;20140;-71
2023/04/07 10:23:33;;;;;;;5.50;1.40;;;;;;;44.51;1.84;100216.72;4983288;28;20057;-72
2023/04/07 10:26:00;;;;;;;5.65;1.40;;;;;;;44.99;1.73;100218.91;5048544;28;20364;-72
2023/04/07 10:28:28;;;;;;;11.32;1.75;;;;;;;45.36;1.75;100214.34;4982935;28;20041;-72
2023/04/07 10:30:55;;;;;;;10.48;1.70;;;;;;;45.16;1.60;100212.81;5015727;28;20148;-72
2023/04/07 10:33:50;;;;;;;5.75;1.40;;;;;;;45.37;1.42;100210.34;4999477;28;20061;-73
2023/04/07 10:36:20;;;;;;;3.50;1.23;;;;;;;44.97;1.71;100212.00;5015692;28;20056;-72
2023/04/07 10:39:18;;;;;;;15.77;1.60;;;;;;;45.00;1.76;100208.47;5032142;28;20118;-73
2023/04/07 10:41:43;;;;;;;3.50;1.33;;;;;;;44.63;1.75;100208.16;4987346;28;20041;-72
2023/04/07 10:44:38;;;;;;;8.32;1.40;;;;;;;45.71;1.63;100209.31;4999050;28;20073;-72
2023/04/07 10:47:05;;;;;;;6.18;1.30;;;;;;;45.72;1.49;100207.28;4998806;28;20102;-72
2023/04/07 10:49:34;;;;;;;9.82;2.13;;;;;;;45.03;1.57;100211.38;4998813;28;20080;-72
2023/04/07 10:52:34;;;;;;;8.55;1.70;;;;;;;44.77;1.68;100205.66;4999035;28;20049;-71
2023/04/07 10:55:30;;;;;;;6.40;1.60;;;;;;;44.05;1.84;100204.56;4968011;28;20049;-72
2023/04/07 10:58:15;;;;;;;6.43;1.45;;;;;;;43.29;2.12;100204.28;4999064;28;20079;-72
2023/04/07 11:00:42;;;;;;;7.97;1.42;;;;;;;41.07;2.90;100195.94;4997667;28;20132;-72
2023/04/07 11:03:12;;;;;;;4.00;1.52;;;;;;;38.83;3.78;100193.41;4982222;28;20258;-72
2023/04/07 11:05:39;;;;;;;5.47;1.48;;;;;;;37.11;4.19;100184.03;4998486;28;20037;-74
2023/04/07 11:08:06;;;;;;;10.70;1.83;;;;;;;36.02;4.99;100187.63;5014878;28;20042;-71
2023/04/07 11:10:33;;;;;;;7.05;1.90;;;;;;;36.30;4.89;100195.56;4998215;28;20049;-75
2023/04/07 11:13:01;;;;;;;7.28;1.63;;;;;;;36.84;4.53;100186.19;5012783;28;20203;-75
2023/04/07 11:15:29;;;;;;;3.63;2.03;;;;;;;35.90;5.21;100184.59;4981211;28;20037;-75
2023/04/07 11:18:16;;;;;;;9.50;1.40;;;;;;;36.88;4.75;100187.16;4996685;28;20472;-75
2023/04/07 11:20:53;;;;;;;2.90;1.50;;;;;;;36.99;4.63;100178.28;4991983;28;20069;-73
2023/04/07 11:23:26;;;;;;;11.98;1.90;;;;;;;36.23;4.83;100189.59;4997316;28;20113;-76
2023/04/07 11:26:01;;;;;;;6.90;1.40;;;;;;;35.92;5.20;100185.91;5011590;28;20056;-73
2023/04/07 11:28:28;;;;;;;10.07;2.50;;;;;;;35.41;5.36;100183.41;4992405;28;20043;-70
2023/04/07 11:30:57;;;;;;;6.05;1.33;;;;;;;34.88;5.53;100186.94;4973697;28;20051;-73
2023/04/07 11:33:27;;;;;;;4.60;1.77;;;;;;;33.88;6.07;100173.66;4979997;28;20107;-76
2023/04/07 11:35:57;;;;;;;8.45;1.90;;;;;;;32.48;6.55;100170.53;4978887;28;20132;-75
2023/04/07 11:38:44;;;;;;;9.18;2.20;;;;;;;31.46;7.10;100180.78;5003635;28;20095;-75
2023/04/07 11:41:13;;;;;;;5.90;1.80;;;;;;;30.24;8.03;100170.25;4977894;28;20076;-75